sensor_id;sensor_type;location;lat;lon;timestamp;P1;durP1;ratioP1;P2;durP2;ratioP2
66721;SDS011;53633;49.932;10.884;2024-01-07T08:29:17;15.65;;;5.68;;
66721;SDS011;53633;49.932;10.884;2024-01-07T08:31:43;14.50;;;5.90;;
66721;SDS011;53633;49.932;10.884;2024-01-07T08:34:11;16.10;;;6.07;;
66721;SDS011;53633;49.932;10.884;2024-01-07T08:36:37;18.20;;;6.93;;
66721;SDS011;53633;49.932;10.884;2024-01-07T08:39:04;18.77;;;7.00;;
66721;SDS011;53633;49.932;10.884;2024-01-07T08:41:31;17.13;;;6.63;;
66721;SDS011;53633;49.932;10.884;2024-01-07T08:43:57;18.50;;;6.28;;
66721;SDS011;53633;49.932;10.884;2024-01-07T08:46:25;17.13;;;6.50;;
66721;SDS011;53633;49.932;10.884;2024-01-07T08:48:52;15.48;;;6.75;;
66721;SDS011;53633;49.932;10.884;2024-01-07T08:51:19;16.02;;;5.72;;
66721;SDS011;53633;49.932;10.884;2024-01-07T08:53:46;17.58;;;6.13;;
66721;SDS011;53633;49.932;10.884;2024-01-07T08:56:13;17.27;;;6.28;;
66721;SDS011;53633;49.932;10.884;2024-01-07T08:58:40;16.03;;;6.03;;
66721;SDS011;53633;49.932;10.884;2024-01-07T09:01:07;14.77;;;5.80;;
66721;SDS011;53633;49.932;10.884;2024-01-07T09:03:35;18.67;;;6.75;;
66721;SDS011;53633;49.932;10.884;2024-01-07T09:06:02;16.27;;;7.18;;
66721;SDS011;53633;49.932;10.884;2024-01-07T09:08:29;17.00;;;5.82;;
66721;SDS011;53633;49.932;10.884;2024-01-07T09:10:56;16.50;;;5.80;;
66721;SDS011;53633;49.932;10.884;2024-01-07T09:13:23;17.77;;;6.47;;
66721;SDS011;53633;49.932;10.884;2024-01-07T09:15:49;18.15;;;6.55;;
66721;SDS011;53633;49.932;10.884;2024-01-07T09:18:16;17.50;;;5.88;;
66721;SDS011;53633;49.932;10.884;2024-01-07T09:20:44;13.82;;;5.75;;
66721;SDS011;53633;49.932;10.884;2024-01-07T09:23:12;15.80;;;5.90;;
66721;SDS011;53633;49.932;10.884;2024-01-07T09:25:38;19.60;;;7.13;;
66721;SDS011;53633;49.932;10.884;2024-01-07T09:28:05;18.55;;;6.35;;
66721;SDS011;53633;49.932;10.884;2024-01-07T09:30:32;17.63;;;6.00;;
66721;SDS011;53633;49.932;10.884;2024-01-07T09:32:59;17.75;;;6.97;;
66721;SDS011;53633;49.932;10.884;2024-01-07T09:35:26;16.17;;;6.07;;
66721;SDS011;53633;49.932;10.884;2024-01-07T09:37:54;16.88;;;6.68;;
66721;SDS011;53633;49.932;10.884;2024-01-07T09:40:21;15.85;;;6.93;;
66721;SDS011;53633;49.932;10.884;2024-01-07T09:42:47;17.33;;;6.38;;
66721;SDS011;53633;49.932;10.884;2024-01-07T09:45:15;16.38;;;5.78;;
66721;SDS011;53633;49.932;10.884;2024-01-07T09:47:42;14.60;;;5.83;;
66721;SDS011;53633;49.932;10.884;2024-01-07T09:50:11;18.17;;;7.47;;
66721;SDS011;53633;49.932;10.884;2024-01-07T09:52:38;20.50;;;7.35;;
66721;SDS011;53633;49.932;10.884;2024-01-07T09:55:11;17.92;;;7.07;;
66721;SDS011;53633;49.932;10.884;2024-01-07T09:57:45;16.75;;;6.28;;
66721;SDS011;53633;49.932;10.884;2024-01-07T10:00:12;16.73;;;6.20;;
66721;SDS011;53633;49.932;10.884;2024-01-07T10:02:39;15.40;;;6.13;;
66721;SDS011;53633;49.932;10.884;2024-01-07T10:05:06;17.90;;;6.13;;
66721;SDS011;53633;49.932;10.884;2024-01-07T10:07:33;15.23;;;5.70;;
66721;SDS011;53633;49.932;10.884;2024-01-07T10:12:50;15.10;;;5.90;;
66721;SDS011;53633;49.932;10.884;2024-01-07T10:15:16;15.85;;;5.35;;
66721;SDS011;53633;49.932;10.884;2024-01-07T10:17:44;16.98;;;6.35;;
66721;SDS011;53633;49.932;10.884;2024-01-07T10:20:12;14.52;;;5.88;;
66721;SDS011;53633;49.932;10.884;2024-01-07T10:22:39;14.27;;;5.65;;
66721;SDS011;53633;49.932;10.884;2024-01-07T10:25:06;16.07;;;5.80;;
66721;SDS011;53633;49.932;10.884;2024-01-07T10:27:35;12.52;;;5.30;;
66721;SDS011;53633;49.932;10.884;2024-01-07T10:30:02;15.30;;;5.90;;
66721;SDS011;53633;49.932;10.884;2024-01-07T10:32:29;16.95;;;5.63;;
66721;SDS011;53633;49.932;10.884;2024-01-07T10:34:57;14.98;;;5.50;;
66721;SDS011;53633;49.932;10.884;2024-01-07T10:37:29;15.33;;;6.10;;
66721;SDS011;53633;49.932;10.884;2024-01-07T10:39:56;14.23;;;5.82;;
66721;SDS011;53633;49.932;10.884;2024-01-07T10:42:24;14.65;;;5.97;;
66721;SDS011;53633;49.932;10.884;2024-01-07T10:44:52;14.30;;;5.57;;
66721;SDS011;53633;49.932;10.884;2024-01-07T10:47:19;15.77;;;5.68;;
66721;SDS011;53633;49.932;10.884;2024-01-07T10:49:48;15.00;;;5.30;;
66721;SDS011;53633;49.932;10.884;2024-01-07T10:52:17;12.52;;;4.68;;
66721;SDS011;53633;49.932;10.884;2024-01-07T10:54:44;14.57;;;5.15;;
66721;SDS011;53633;49.932;10.884;2024-01-07T10:57:15;13.40;;;5.40;;
66721;SDS011;53633;49.932;10.884;2024-01-07T10:59:47;14.02;;;4.93;;
66721;SDS011;53633;49.932;10.884;2024-01-07T11:02:18;11.77;;;4.47;;
66721;SDS011;53633;49.932;10.884;2024-01-07T11:04:50;13.57;;;5.47;;
66721;SDS011;53633;49.932;10.884;2024-01-07T11:07:23;12.10;;;5.13;;
66721;SDS011;53633;49.932;10.884;2024-01-07T11:09:56;12.85;;;5.05;;
66721;SDS011;53633;49.932;10.884;2024-01-07T11:12:30;13.05;;;5.20;;
66721;SDS011;53633;49.932;10.884;2024-01-07T11:14:57;11.57;;;4.30;;
66721;SDS011;53633;49.932;10.884;2024-01-07T11:17:41;12.38;;;4.95;;
66721;SDS011;53633;49.932;10.884;2024-01-07T11:20:12;14.32;;;3.40;;
66721;SDS011;53633;49.932;10.884;2024-01-07T11:22:43;12.05;;;4.15;;
66721;SDS011;53633;49.932;10.884;2024-01-07T11:27:55;10.13;;;3.87;;
66721;SDS011;53633;49.932;10.884;2024-01-07T11:30:22;10.30;;;3.33;;
66721;SDS011;53633;49.932;10.884;2024-01-07T11:32:54;9.30;;;3.42;;
66721;SDS011;53633;49.932;10.884;2024-01-07T11:35:28;9.20;;;3.33;;
66721;SDS011;53633;49.932;10.884;2024-01-07T11:38:21;9.65;;;2.90;;
66721;SDS011;53633;49.932;10.884;2024-01-07T11:40:48;9.60;;;3.40;;
66721;SDS011;53633;49.932;10.884;2024-01-07T11:43:16;9.95;;;3.75;;
66721;SDS011;53633;49.932;10.884;2024-01-07T11:45:43;10.27;;;3.55;;
66721;SDS011;53633;49.932;10.884;2024-01-07T11:48:11;10.60;;;3.80;;
66721;SDS011;53633;49.932;10.884;2024-01-07T11:50:38;10.23;;;3.30;;
66721;SDS011;53633;49.932;10.884;2024-01-07T11:53:05;8.60;;;2.93;;
66721;SDS011;53633;49.932;10.884;2024-01-07T11:55:32;8.18;;;2.60;;
66721;SDS011;53633;49.932;10.884;2024-01-07T11:58:00;9.85;;;3.05;;
66721;SDS011;53633;49.932;10.884;2024-01-07T12:00:27;9.65;;;2.65;;
66721;SDS011;53633;49.932;10.884;2024-01-07T12:02:54;9.50;;;2.78;;
66721;SDS011;53633;49.932;10.884;2024-01-07T12:05:22;8.30;;;2.77;;
66721;SDS011;53633;49.932;10.884;2024-01-07T12:07:49;8.50;;;2.35;;
66721;SDS011;53633;49.932;10.884;2024-01-07T12:10:15;6.85;;;2.70;;
66721;SDS011;53633;49.932;10.884;2024-01-07T12:12:42;8.82;;;3.00;;
66721;SDS011;53633;49.932;10.884;2024-01-07T12:15:09;8.15;;;2.35;;
66721;SDS011;53633;49.932;10.884;2024-01-07T12:17:37;8.93;;;1.97;;
66721;SDS011;53633;49.932;10.884;2024-01-07T12:20:04;7.78;;;2.00;;
66721;SDS011;53633;49.932;10.884;2024-01-07T12:22:33;8.30;;;2.13;;
66721;SDS011;53633;49.932;10.884;2024-01-07T12:25:04;9.05;;;2.33;;
66721;SDS011;53633;49.932;10.884;2024-01-07T12:27:32;8.95;;;2.33;;
66721;SDS011;53633;49.932;10.884;2024-01-07T12:29:59;6.90;;;2.00;;
66721;SDS011;53633;49.932;10.884;2024-01-07T12:32:26;9.07;;;2.15;;
66721;SDS011;53633;49.932;10.884;2024-01-07T12:34:53;7.82;;;2.30;;
66721;SDS011;53633;49.932;10.884;2024-01-07T12:37:23;9.93;;;2.17;;
66721;SDS011;53633;49.932;10.884;2024-01-07T12:39:53;8.00;;;2.22;;
66721;SDS011;53633;49.932;10.884;2024-01-07T12:42:20;6.73;;;1.67;;
66721;SDS011;53633;49.932;10.884;2024-01-07T12:44:47;7.60;;;2.38;;
66721;SDS011;53633;49.932;10.884;2024-01-07T12:47:14;6.35;;;1.92;;
66721;SDS011;53633;49.932;10.884;2024-01-07T12:49:40;6.72;;;1.65;;
66721;SDS011;53633;49.932;10.884;2024-01-07T12:52:07;7.53;;;1.88;;
66721;SDS011;53633;49.932;10.884;2024-01-07T12:54:34;6.60;;;2.00;;
66721;SDS011;53633;49.932;10.884;2024-01-07T12:57:02;7.20;;;2.13;;
66721;SDS011;53633;49.932;10.884;2024-01-07T12:59:30;6.68;;;2.20;;
66721;SDS011;53633;49.932;10.884;2024-01-07T13:01:56;8.68;;;2.30;;
66721;SDS011;53633;49.932;10.884;2024-01-07T13:04:23;5.85;;;1.88;;
66721;SDS011;53633;49.932;10.884;2024-01-07T13:06:50;7.67;;;2.53;;
66721;SDS011;53633;49.932;10.884;2024-01-07T13:09:17;7.35;;;2.40;;
66721;SDS011;53633;49.932;10.884;2024-01-07T13:11:44;6.75;;;2.35;;
66721;SDS011;53633;49.932;10.884;2024-01-07T13:14:12;8.45;;;2.25;;
66721;SDS011;53633;49.932;10.884;2024-01-07T13:16:39;8.10;;;2.60;;
66721;SDS011;53633;49.932;10.884;2024-01-07T13:19:08;6.00;;;2.23;;
66721;SDS011;53633;49.932;10.884;2024-01-07T13:21:35;8.10;;;2.53;;
66721;SDS011;53633;49.932;10.884;2024-01-07T13:24:05;6.18;;;2.05;;
66721;SDS011;53633;49.932;10.884;2024-01-07T13:26:32;6.90;;;2.13;;
66721;SDS011;53633;49.932;10.884;2024-01-07T13:28:59;7.05;;;2.03;;
66721;SDS011;53633;49.932;10.884;2024-01-07T13:31:27;9.17;;;2.87;;
66721;SDS011;53633;49.932;10.884;2024-01-07T13:33:54;6.93;;;2.72;;
66721;SDS011;53633;49.932;10.884;2024-01-07T13:36:21;8.45;;;2.53;;
66721;SDS011;53633;49.932;10.884;2024-01-07T13:38:48;7.50;;;2.30;;
66721;SDS011;53633;49.932;10.884;2024-01-07T13:41:14;7.57;;;2.42;;
66721;SDS011;53633;49.932;10.884;2024-01-07T13:43:41;6.60;;;2.27;;
66721;SDS011;53633;49.932;10.884;2024-01-07T13:46:08;7.93;;;2.83;;
66721;SDS011;53633;49.932;10.884;2024-01-07T13:48:37;8.18;;;2.60;;
66721;SDS011;53633;49.932;10.884;2024-01-07T13:51:04;6.78;;;2.45;;
66721;SDS011;53633;49.932;10.884;2024-01-07T13:53:31;7.65;;;3.00;;
66721;SDS011;53633;49.932;10.884;2024-01-07T13:55:57;6.83;;;3.00;;
66721;SDS011;53633;49.932;10.884;2024-01-07T13:58:24;7.82;;;2.40;;
66721;SDS011;53633;49.932;10.884;2024-01-07T14:00:51;9.88;;;2.58;;
66721;SDS011;53633;49.932;10.884;2024-01-07T14:03:18;7.75;;;2.42;;
66721;SDS011;53633;49.932;10.884;2024-01-07T14:05:46;7.65;;;2.20;;
66721;SDS011;53633;49.932;10.884;2024-01-07T14:08:12;7.57;;;2.20;;
66721;SDS011;53633;49.932;10.884;2024-01-07T14:10:39;9.20;;;2.63;;
66721;SDS011;53633;49.932;10.884;2024-01-07T14:13:06;8.55;;;3.00;;
66721;SDS011;53633;49.932;10.884;2024-01-07T14:15:33;7.90;;;2.53;;
66721;SDS011;53633;49.932;10.884;2024-01-07T14:17:59;8.18;;;2.95;;
66721;SDS011;53633;49.932;10.884;2024-01-07T14:20:26;8.60;;;3.20;;
66721;SDS011;53633;49.932;10.884;2024-01-07T14:22:54;6.72;;;3.08;;
66721;SDS011;53633;49.932;10.884;2024-01-07T14:25:21;10.23;;;2.95;;
66721;SDS011;53633;49.932;10.884;2024-01-07T14:27:48;6.93;;;2.28;;
66721;SDS011;53633;49.932;10.884;2024-01-07T14:30:15;9.30;;;2.30;;
66721;SDS011;53633;49.932;10.884;2024-01-07T14:32:42;7.30;;;2.60;;
66721;SDS011;53633;49.932;10.884;2024-01-07T14:35:09;6.07;;;2.38;;
66721;SDS011;53633;49.932;10.884;2024-01-07T14:37:37;6.68;;;2.38;;
66721;SDS011;53633;49.932;10.884;2024-01-07T14:40:06;5.93;;;2.15;;
66721;SDS011;53633;49.932;10.884;2024-01-07T14:42:33;6.75;;;2.15;;
66721;SDS011;53633;49.932;10.884;2024-01-07T14:45:00;7.87;;;2.53;;
66721;SDS011;53633;49.932;10.884;2024-01-07T14:47:27;6.70;;;2.42;;
66721;SDS011;53633;49.932;10.884;2024-01-07T14:49:53;9.63;;;2.90;;
66721;SDS011;53633;49.932;10.884;2024-01-07T14:52:20;8.00;;;2.72;;
66721;SDS011;53633;49.932;10.884;2024-01-07T14:54:47;7.57;;;2.63;;
66721;SDS011;53633;49.932;10.884;2024-01-07T14:57:15;7.13;;;2.50;;
66721;SDS011;53633;49.932;10.884;2024-01-07T14:59:42;7.80;;;2.45;;
66721;SDS011;53633;49.932;10.884;2024-01-07T15:02:08;9.57;;;2.95;;
66721;SDS011;53633;49.932;10.884;2024-01-07T15:04:39;7.95;;;2.58;;
66721;SDS011;53633;49.932;10.884;2024-01-07T15:07:06;6.75;;;2.40;;
66721;SDS011;53633;49.932;10.884;2024-01-07T15:09:33;7.00;;;2.60;;
66721;SDS011;53633;49.932;10.884;2024-01-07T15:12:00;7.03;;;2.47;;
66721;SDS011;53633;49.932;10.884;2024-01-07T15:14:28;9.50;;;2.45;;
66721;SDS011;53633;49.932;10.884;2024-01-07T15:16:55;8.05;;;2.60;;
66721;SDS011;53633;49.932;10.884;2024-01-07T15:19:22;7.55;;;2.90;;
66721;SDS011;53633;49.932;10.884;2024-01-07T15:21:49;9.20;;;3.67;;
66721;SDS011;53633;49.932;10.884;2024-01-07T15:24:16;9.40;;;2.88;;
66721;SDS011;53633;49.932;10.884;2024-01-07T15:26:43;8.60;;;2.65;;
66721;SDS011;53633;49.932;10.884;2024-01-07T15:29:10;7.68;;;3.15;;
66721;SDS011;53633;49.932;10.884;2024-01-07T15:31:38;8.80;;;2.90;;
66721;SDS011;53633;49.932;10.884;2024-01-07T15:34:05;6.13;;;2.37;;
66721;SDS011;53633;49.932;10.884;2024-01-07T15:36:32;6.75;;;2.10;;
66721;SDS011;53633;49.932;10.884;2024-01-07T15:38:59;7.15;;;2.20;;
66721;SDS011;53633;49.932;10.884;2024-01-07T15:41:25;8.13;;;2.65;;
66721;SDS011;53633;49.932;10.884;2024-01-07T15:43:52;10.35;;;3.00;;
66721;SDS011;53633;49.932;10.884;2024-01-07T15:46:19;6.47;;;2.97;;
66721;SDS011;53633;49.932;10.884;2024-01-07T15:48:47;7.85;;;2.17;;
66721;SDS011;53633;49.932;10.884;2024-01-07T15:51:14;8.50;;;2.95;;
66721;SDS011;53633;49.932;10.884;2024-01-07T15:53:41;5.78;;;2.28;;
66721;SDS011;53633;49.932;10.884;2024-01-07T15:56:07;8.32;;;2.42;;
66721;SDS011;53633;49.932;10.884;2024-01-07T15:58:34;6.10;;;2.00;;
66721;SDS011;53633;49.932;10.884;2024-01-07T16:01:01;7.07;;;2.17;;
66721;SDS011;53633;49.932;10.884;2024-01-07T16:03:30;5.53;;;1.92;;
66721;SDS011;53633;49.932;10.884;2024-01-07T16:05:58;6.15;;;1.98;;
66721;SDS011;53633;49.932;10.884;2024-01-07T16:08:25;7.07;;;2.10;;
66721;SDS011;53633;49.932;10.884;2024-01-07T16:10:52;8.00;;;1.93;;
66721;SDS011;53633;49.932;10.884;2024-01-07T16:13:19;5.07;;;1.20;;
66721;SDS011;53633;49.932;10.884;2024-01-07T16:15:46;4.53;;;1.27;;
66721;SDS011;53633;49.932;10.884;2024-01-07T16:18:13;6.30;;;1.85;;
66721;SDS011;53633;49.932;10.884;2024-01-07T16:20:40;6.13;;;1.80;;
66721;SDS011;53633;49.932;10.884;2024-01-07T16:23:08;5.07;;;1.57;;
66721;SDS011;53633;49.932;10.884;2024-01-07T16:25:35;5.05;;;1.52;;
66721;SDS011;53633;49.932;10.884;2024-01-07T16:28:02;6.53;;;1.73;;
66721;SDS011;53633;49.932;10.884;2024-01-07T16:30:28;5.25;;;1.60;;
66721;SDS011;53633;49.932;10.884;2024-01-07T16:32:55;5.40;;;1.75;;
66721;SDS011;53633;49.932;10.884;2024-01-07T16:35:22;5.53;;;1.50;;
66721;SDS011;53633;49.932;10.884;2024-01-07T16:37:49;6.63;;;1.80;;
66721;SDS011;53633;49.932;10.884;2024-01-07T16:40:17;5.68;;;1.95;;
66721;SDS011;53633;49.932;10.884;2024-01-07T16:42:43;6.32;;;2.08;;
66721;SDS011;53633;49.932;10.884;2024-01-07T16:45:10;4.65;;;1.17;;
66721;SDS011;53633;49.932;10.884;2024-01-07T16:47:37;5.30;;;1.40;;
66721;SDS011;53633;49.932;10.884;2024-01-07T16:50:04;4.53;;;1.42;;
66721;SDS011;53633;49.932;10.884;2024-01-07T16:52:34;6.03;;;1.20;;
66721;SDS011;53633;49.932;10.884;2024-01-07T16:55:01;5.88;;;1.60;;
66721;SDS011;53633;49.932;10.884;2024-01-07T16:57:29;4.80;;;1.30;;
66721;SDS011;53633;49.932;10.884;2024-01-07T16:59:56;5.40;;;1.60;;
66721;SDS011;53633;49.932;10.884;2024-01-07T17:02:23;3.75;;;1.10;;
66721;SDS011;53633;49.932;10.884;2024-01-07T17:04:49;5.57;;;1.70;;
66721;SDS011;53633;49.932;10.884;2024-01-07T17:07:16;5.18;;;1.80;;
66721;SDS011;53633;49.932;10.884;2024-01-07T17:09:43;4.32;;;1.17;;
66721;SDS011;53633;49.932;10.884;2024-01-07T17:12:10;6.87;;;1.20;;
66721;SDS011;53633;49.932;10.884;2024-01-07T17:14:38;5.22;;;1.33;;
66721;SDS011;53633;49.932;10.884;2024-01-07T17:17:05;5.55;;;1.50;;
66721;SDS011;53633;49.932;10.884;2024-01-07T17:19:31;5.93;;;1.52;;
66721;SDS011;53633;49.932;10.884;2024-01-07T17:21:58;3.92;;;1.23;;
66721;SDS011;53633;49.932;10.884;2024-01-07T17:24:25;6.07;;;1.50;;
66721;SDS011;53633;49.932;10.884;2024-01-07T17:26:52;4.70;;;1.25;;
66721;SDS011;53633;49.932;10.884;2024-01-07T17:29:19;7.47;;;1.20;;
66721;SDS011;53633;49.932;10.884;2024-01-07T17:31:47;4.85;;;1.25;;
66721;SDS011;53633;49.932;10.884;2024-01-07T17:34:14;5.07;;;1.52;;
66721;SDS011;53633;49.932;10.884;2024-01-07T17:36:41;5.70;;;1.83;;
66721;SDS011;53633;49.932;10.884;2024-01-07T17:39:07;7.40;;;1.55;;
66721;SDS011;53633;49.932;10.884;2024-01-07T17:41:34;4.57;;;1.35;;
66721;SDS011;53633;49.932;10.884;2024-01-07T17:44:01;4.88;;;1.25;;
66721;SDS011;53633;49.932;10.884;2024-01-07T17:46:28;4.60;;;1.15;;
66721;SDS011;53633;49.932;10.884;2024-01-07T17:48:56;4.57;;;1.20;;
66721;SDS011;53633;49.932;10.884;2024-01-07T17:51:23;3.92;;;1.15;;
66721;SDS011;53633;49.932;10.884;2024-01-07T17:53:49;5.50;;;1.48;;
66721;SDS011;53633;49.932;10.884;2024-01-07T17:56:19;5.97;;;1.60;;
66721;SDS011;53633;49.932;10.884;2024-01-07T17:58:46;5.97;;;1.27;;
66721;SDS011;53633;49.932;10.884;2024-01-07T18:01:13;4.10;;;0.87;;
66721;SDS011;53633;49.932;10.884;2024-01-07T18:03:40;4.10;;;1.20;;
66721;SDS011;53633;49.932;10.884;2024-01-07T18:06:08;3.85;;;0.80;;
66721;SDS011;53633;49.932;10.884;2024-01-07T18:08:35;4.30;;;0.90;;
66721;SDS011;53633;49.932;10.884;2024-01-07T18:11:12;3.35;;;0.80;;
66721;SDS011;53633;49.932;10.884;2024-01-07T18:13:39;4.37;;;0.90;;
66721;SDS011;53633;49.932;10.884;2024-01-07T18:16:06;3.30;;;0.80;;
66721;SDS011;53633;49.932;10.884;2024-01-07T18:18:32;4.82;;;1.20;;
66721;SDS011;53633;49.932;10.884;2024-01-07T18:20:59;4.03;;;0.98;;
66721;SDS011;53633;49.932;10.884;2024-01-07T18:23:27;3.72;;;0.90;;
66721;SDS011;53633;49.932;10.884;2024-01-07T18:25:54;4.40;;;0.83;;
66721;SDS011;53633;49.932;10.884;2024-01-07T18:28:21;4.35;;;0.70;;
66721;SDS011;53633;49.932;10.884;2024-01-07T18:30:48;10.65;;;2.80;;
66721;SDS011;53633;49.932;10.884;2024-01-07T18:33:15;15.85;;;3.42;;
66721;SDS011;53633;49.932;10.884;2024-01-07T18:35:42;4.60;;;1.13;;
66721;SDS011;53633;49.932;10.884;2024-01-07T18:38:08;3.67;;;0.97;;
66721;SDS011;53633;49.932;10.884;2024-01-07T18:40:36;8.02;;;1.65;;
66721;SDS011;53633;49.932;10.884;2024-01-07T18:43:04;5.10;;;1.13;;
66721;SDS011;53633;49.932;10.884;2024-01-07T18:45:30;8.65;;;1.20;;
66721;SDS011;53633;49.932;10.884;2024-01-07T18:47:57;10.80;;;2.50;;
66721;SDS011;53633;49.932;10.884;2024-01-07T18:50:24;7.70;;;1.37;;
66721;SDS011;53633;49.932;10.884;2024-01-07T18:52:51;4.78;;;1.25;;
66721;SDS011;53633;49.932;10.884;2024-01-07T18:55:17;3.55;;;0.90;;
66721;SDS011;53633;49.932;10.884;2024-01-07T18:57:45;3.42;;;0.68;;
66721;SDS011;53633;49.932;10.884;2024-01-07T19:00:12;3.95;;;0.80;;
66721;SDS011;53633;49.932;10.884;2024-01-07T19:02:40;4.07;;;1.10;;
66721;SDS011;53633;49.932;10.884;2024-01-07T19:05:07;5.05;;;0.73;;
66721;SDS011;53633;49.932;10.884;2024-01-07T19:07:34;3.40;;;0.80;;
66721;SDS011;53633;49.932;10.884;2024-01-07T19:10:00;3.47;;;0.95;;
66721;SDS011;53633;49.932;10.884;2024-01-07T19:12:27;3.10;;;0.70;;
66721;SDS011;53633;49.932;10.884;2024-01-07T19:14:55;2.87;;;0.60;;
66721;SDS011;53633;49.932;10.884;2024-01-07T19:17:22;4.22;;;0.88;;
66721;SDS011;53633;49.932;10.884;2024-01-07T19:19:49;4.40;;;0.90;;
66721;SDS011;53633;49.932;10.884;2024-01-07T19:22:16;4.05;;;1.05;;
66721;SDS011;53633;49.932;10.884;2024-01-07T19:24:42;4.50;;;1.15;;
66721;SDS011;53633;49.932;10.884;2024-01-07T19:27:09;2.70;;;0.70;;
66721;SDS011;53633;49.932;10.884;2024-01-07T19:29:36;4.47;;;0.88;;
66721;SDS011;53633;49.932;10.884;2024-01-07T19:32:04;4.53;;;0.90;;
66721;SDS011;53633;49.932;10.884;2024-01-07T19:34:31;4.53;;;0.80;;
66721;SDS011;53633;49.932;10.884;2024-01-07T19:36:58;4.30;;;0.80;;
66721;SDS011;53633;49.932;10.884;2024-01-07T19:39:25;4.30;;;1.10;;
66721;SDS011;53633;49.932;10.884;2024-01-07T19:41:51;3.40;;;0.60;;
66721;SDS011;53633;49.932;10.884;2024-01-07T19:44:18;4.30;;;1.10;;
66721;SDS011;53633;49.932;10.884;2024-01-07T19:46:46;3.03;;;0.70;;
66721;SDS011;53633;49.932;10.884;2024-01-07T19:49:14;2.67;;;0.68;;
66721;SDS011;53633;49.932;10.884;2024-01-07T19:51:41;3.27;;;0.80;;
66721;SDS011;53633;49.932;10.884;2024-01-07T19:54:08;5.05;;;1.30;;
66721;SDS011;53633;49.932;10.884;2024-01-07T19:56:35;4.80;;;0.77;;
66721;SDS011;53633;49.932;10.884;2024-01-07T19:59:02;3.17;;;0.80;;
66721;SDS011;53633;49.932;10.884;2024-01-07T20:01:28;5.15;;;1.23;;
66721;SDS011;53633;49.932;10.884;2024-01-07T20:03:55;4.30;;;1.30;;
66721;SDS011;53633;49.932;10.884;2024-01-07T20:06:23;4.32;;;1.20;;
66721;SDS011;53633;49.932;10.884;2024-01-07T20:08:50;3.75;;;1.08;;
66721;SDS011;53633;49.932;10.884;2024-01-07T20:11:17;3.90;;;1.00;;
66721;SDS011;53633;49.932;10.884;2024-01-07T20:13:45;3.95;;;1.00;;
66721;SDS011;53633;49.932;10.884;2024-01-07T20:16:13;3.37;;;1.00;;
66721;SDS011;53633;49.932;10.884;2024-01-07T20:18:40;4.80;;;0.90;;
66721;SDS011;53633;49.932;10.884;2024-01-07T20:21:08;4.13;;;1.40;;
66721;SDS011;53633;49.932;10.884;2024-01-07T20:23:45;3.83;;;0.88;;
66721;SDS011;53633;49.932;10.884;2024-01-07T20:26:12;5.50;;;1.40;;
66721;SDS011;53633;49.932;10.884;2024-01-07T20:28:39;4.07;;;1.20;;
66721;SDS011;53633;49.932;10.884;2024-01-07T20:31:06;4.38;;;1.27;;
66721;SDS011;53633;49.932;10.884;2024-01-07T20:33:37;4.80;;;1.30;;
66721;SDS011;53633;49.932;10.884;2024-01-07T20:36:04;4.70;;;1.27;;
66721;SDS011;53633;49.932;10.884;2024-01-07T20:38:31;4.68;;;1.20;;
66721;SDS011;53633;49.932;10.884;2024-01-07T20:40:59;5.50;;;1.23;;
66721;SDS011;53633;49.932;10.884;2024-01-07T20:43:26;5.22;;;1.13;;
66721;SDS011;53633;49.932;10.884;2024-01-07T20:45:53;4.95;;;1.25;;
66721;SDS011;53633;49.932;10.884;2024-01-07T20:48:19;6.53;;;1.30;;
66721;SDS011;53633;49.932;10.884;2024-01-07T20:50:46;6.05;;;1.30;;
66721;SDS011;53633;49.932;10.884;2024-01-07T20:53:13;4.33;;;1.10;;
66721;SDS011;53633;49.932;10.884;2024-01-07T20:55:40;5.95;;;1.50;;
66721;SDS011;53633;49.932;10.884;2024-01-07T20:58:08;3.83;;;1.13;;
66721;SDS011;53633;49.932;10.884;2024-01-07T21:00:34;4.45;;;1.38;;
66721;SDS011;53633;49.932;10.884;2024-01-07T21:03:01;4.10;;;1.30;;
66721;SDS011;53633;49.932;10.884;2024-01-07T21:05:28;4.10;;;1.20;;
66721;SDS011;53633;49.932;10.884;2024-01-07T21:07:55;4.63;;;1.30;;
66721;SDS011;53633;49.932;10.884;2024-01-07T21:10:22;5.38;;;1.58;;
66721;SDS011;53633;49.932;10.884;2024-01-07T21:12:49;5.38;;;1.30;;
66721;SDS011;53633;49.932;10.884;2024-01-07T21:15:17;4.90;;;1.08;;
66721;SDS011;53633;49.932;10.884;2024-01-07T21:17:44;5.83;;;1.37;;
66721;SDS011;53633;49.932;10.884;2024-01-07T21:20:11;3.75;;;1.00;;
66721;SDS011;53633;49.932;10.884;2024-01-07T21:22:37;6.03;;;1.50;;
66721;SDS011;53633;49.932;10.884;2024-01-07T21:25:05;4.55;;;1.17;;
66721;SDS011;53633;49.932;10.884;2024-01-07T21:27:32;5.07;;;1.63;;
66721;SDS011;53633;49.932;10.884;2024-01-07T21:29:59;4.93;;;1.50;;
66721;SDS011;53633;49.932;10.884;2024-01-07T21:32:27;6.07;;;1.30;;
66721;SDS011;53633;49.932;10.884;2024-01-07T21:34:54;4.72;;;1.35;;
66721;SDS011;53633;49.932;10.884;2024-01-07T21:37:21;5.63;;;1.30;;
66721;SDS011;53633;49.932;10.884;2024-01-07T21:39:48;4.68;;;1.17;;
66721;SDS011;53633;49.932;10.884;2024-01-07T21:42:14;5.60;;;1.13;;
66721;SDS011;53633;49.932;10.884;2024-01-07T21:44:41;3.90;;;1.25;;
66721;SDS011;53633;49.932;10.884;2024-01-07T21:47:08;5.38;;;1.10;;
66721;SDS011;53633;49.932;10.884;2024-01-07T21:49:36;5.20;;;1.00;;
66721;SDS011;53633;49.932;10.884;2024-01-07T21:52:03;5.18;;;0.90;;
66721;SDS011;53633;49.932;10.884;2024-01-07T21:54:30;4.90;;;1.43;;
66721;SDS011;53633;49.932;10.884;2024-01-07T21:57:11;5.32;;;1.58;;
66721;SDS011;53633;49.932;10.884;2024-01-07T21:59:37;5.45;;;1.63;;
66721;SDS011;53633;49.932;10.884;2024-01-07T22:02:04;4.53;;;1.40;;
66721;SDS011;53633;49.932;10.884;2024-01-07T22:04:31;4.82;;;1.40;;
66721;SDS011;53633;49.932;10.884;2024-01-07T22:06:59;6.47;;;1.43;;
66721;SDS011;53633;49.932;10.884;2024-01-07T22:09:28;6.15;;;1.40;;
66721;SDS011;53633;49.932;10.884;2024-01-07T22:11:55;4.80;;;1.20;;
66721;SDS011;53633;49.932;10.884;2024-01-07T22:14:22;4.03;;;1.05;;
66721;SDS011;53633;49.932;10.884;2024-01-07T22:16:49;3.67;;;0.93;;
66721;SDS011;53633;49.932;10.884;2024-01-07T22:19:15;5.03;;;1.43;;
66721;SDS011;53633;49.932;10.884;2024-01-07T22:21:42;4.60;;;1.52;;
66721;SDS011;53633;49.932;10.884;2024-01-07T22:24:11;5.03;;;1.33;;
66721;SDS011;53633;49.932;10.884;2024-01-07T22:26:38;4.53;;;1.50;;
66721;SDS011;53633;49.932;10.884;2024-01-07T22:29:05;4.72;;;1.20;;
66721;SDS011;53633;49.932;10.884;2024-01-07T22:31:32;5.10;;;1.50;;
66721;SDS011;53633;49.932;10.884;2024-01-07T22:33:59;6.22;;;1.77;;
66721;SDS011;53633;49.932;10.884;2024-01-07T22:36:25;5.70;;;1.83;;
66721;SDS011;53633;49.932;10.884;2024-01-07T22:38:52;3.92;;;1.10;;
66721;SDS011;53633;49.932;10.884;2024-01-07T22:41:21;4.57;;;1.23;;
66721;SDS011;53633;49.932;10.884;2024-01-07T22:43:49;6.60;;;1.60;;
66721;SDS011;53633;49.932;10.884;2024-01-07T22:46:15;6.07;;;1.50;;
66721;SDS011;53633;49.932;10.884;2024-01-07T22:48:42;4.82;;;1.55;;
66721;SDS011;53633;49.932;10.884;2024-01-07T22:51:09;6.85;;;1.40;;
66721;SDS011;53633;49.932;10.884;2024-01-07T22:53:36;4.85;;;1.38;;
66721;SDS011;53633;49.932;10.884;2024-01-07T22:56:02;7.70;;;2.03;;
66721;SDS011;53633;49.932;10.884;2024-01-07T22:58:31;5.43;;;1.50;;
66721;SDS011;53633;49.932;10.884;2024-01-07T23:00:58;6.25;;;1.58;;
66721;SDS011;53633;49.932;10.884;2024-01-07T23:03:24;5.95;;;1.60;;
66721;SDS011;53633;49.932;10.884;2024-01-07T23:05:51;6.30;;;1.67;;